Nearby METAR Reports

 

KAIG - Antigo/Langlade, Wisconsin, USA
Distance from station: SSW 28mi, 46km
Updated: 02/18/2018 11:55am
Clear
Clear
 Wind from SSE
Wind: SSE 16 mph , 26 km/h
Temperature: 23°F , -5°C
Wind Chill: 10°F , -12°C
Dew Point: 14°F , -10°C
Humidity: 68%
Barometer: 30.00 inHg , 1015.9 hPa
Clouds: Clear
Visibility: 10 miles , 16 km
2018/02/18 17:55 KAIG 181755Z AUTO 16014KT 10SM CLR M05/M10 A3000 RMK AO2 T10511101 11051 21168
KRHI - Rhinelander, Wisconsin, USA
Distance from station: WNW 32mi, 51km
Updated: 02/18/2018 11:53am
Overcast
Overcast
 Wind from SSE
Wind: SSE 14 mph , 22 km/h
Temperature: 23°F , -5°C
Wind Chill: 11°F , -12°C
Dew Point: 9°F , -13°C
Humidity: 54%
Barometer: 29.94 inHg , 1013.9 hPa
Clouds: Overcast
Visibility: 10 miles , 16 km
Cloud details: Overcast 10000 ft
2018/02/18 17:53 KRHI 181753Z AUTO 15012KT 10SM OVC100 M05/M13 A2994 RMK AO2 PRESFR SLP166 T10501128 11050 21144 58039
 
KEGV - Eagle River, Wisconsin, USA
Distance from station: NW 35mi, 57km
Updated: 02/18/2018 12:15pm
Clear
Clear
 Wind from SSE
Wind: SSE 7 mph , 11 km/h
Temperature: 23°F , -5°C
Wind Chill: 15°F , -9°C
Dew Point: 7°F , -14°C
Humidity: 50%
Barometer: 29.92 inHg , 1013.2 hPa
Clouds: Clear
Visibility: 10 miles , 16 km
2018/02/18 18:15 KEGV 181815Z AUTO 15006KT 10SM CLR M05/M14 A2992 RMK AO2 T10521141
KIMT - Iron Mountain, Michigan, USA
Distance from station: ENE 41mi, 66km
Updated: 02/18/2018 11:54am
Overcast
Overcast
 Wind from SE
Wind: SE 9 mph , 15 km/h
Temperature: 21°F , -6°C
Wind Chill: 11°F , -12°C
Dew Point: 12°F , -11°C
Humidity: 68%
Barometer: 30.04 inHg , 1017.3 hPa
Clouds: Overcast
Visibility: 10 miles , 16 km
Cloud details: Overcast 8000 ft
2018/02/18 17:54 KIMT 181754Z AUTO 14008KT 10SM OVC080 M06/M11 A3004 RMK AO2 SNB01E14 SLP194 P0000 60000 T10611106 11061 21156 58017
 
KLNL - Land O Lakes, Wisconsin, USA
Distance from station: NNW 47mi, 76km
Updated: 02/18/2018 11:55am
Overcast
Overcast
 Wind from SSE
Wind: SSE 7 mph , 11 km/h
Temperature: 21°F , -6°C
Wind Chill: 12°F , -11°C
Dew Point: 10°F , -12°C
Humidity: 63%
Barometer: 29.95 inHg , 1014.2 hPa
Clouds: Overcast
Visibility: 10 miles , 16 km
Cloud details: Partly cloudy 3900 ft
Overcast 5000 ft
2018/02/18 17:55 KLNL 181755Z AUTO 15006KT 10SM SCT039 OVC050 M06/M12 A2995 RMK AO2 T10601125 11060 21177
KRRL - Merrill, Wisconsin, USA
Distance from station: WSW 47mi, 76km
Updated: 02/18/2018 11:55am
Overcast
Overcast
 Wind from SSE
Wind: SSE 13 mph , 20 km/h, Gust: 21 mph , 33 km/h
Temperature: 27°F , -3°C
Wind Chill: 16°F , -9°C
Dew Point: 14°F , -10°C
Humidity: 59%
Barometer: 29.97 inHg , 1014.9 hPa
Clouds: Overcast
Visibility: 10 miles , 16 km
Cloud details: Overcast 11000 ft
2018/02/18 17:55 KRRL 181755Z AUTO 15011G18KT 10SM OVC110 M03/M10 A2997 RMK AO2 T10301103 11030 21157
 
KTKV - Tomahawk Regnl, Wisconsin, USA
Distance from station: W 47mi, 76km
Updated: 02/18/2018 11:55am
Overcast
Overcast
 Wind from SE
Wind: SE 7 mph , 11 km/h
Temperature: 25°F , -4°C
Wind Chill: 17°F , -8°C
Dew Point: 10°F , -12°C
Humidity: 54%
Barometer: 29.93 inHg , 1013.5 hPa
Clouds: Overcast
Visibility: 10 miles , 16 km
Cloud details: Overcast 9500 ft
2018/02/18 17:55 KTKV 181755Z AUTO 14006KT 10SM OVC095 M04/M12 A2993 RMK AO2 T10401117 11040 21157
KARV - Minocqua/Woodruf, Wisconsin, USA
Distance from station: WNW 50mi, 81km
Updated: 02/18/2018 11:55am
Overcast
Overcast
 Wind from SSE
Wind: SSE 14 mph , 22 km/h, Gust: 20 mph , 31 km/h
Temperature: 23°F , -5°C
Wind Chill: 11°F , -12°C
Dew Point: 9°F , -13°C
Humidity: 54%
Barometer: 29.90 inHg , 1012.5 hPa
Clouds: Overcast
Visibility: 10 miles , 16 km
Cloud details: Partly cloudy 7500 ft
Overcast 8500 ft
2018/02/18 17:55 KARV 181755Z AUTO 15012G17KT 10SM SCT075 OVC085 M05/M13 A2990 RMK AO2 T10501126 11050 21142